createdAt,value
2023-04-01T00:01:14.970Z,6.90
2023-04-01T00:03:42.474Z,6.20
2023-04-01T00:06:11.053Z,7.07
2023-04-01T00:08:38.204Z,7.10
2023-04-01T00:11:05.312Z,7.72
2023-04-01T00:13:32.534Z,7.80
2023-04-01T00:16:00.431Z,7.80
2023-04-01T00:18:27.782Z,8.50
2023-04-01T00:20:55.086Z,9.23
2023-04-01T00:23:22.403Z,8.75
2023-04-01T00:25:50.541Z,9.77
2023-04-01T00:28:18.662Z,8.80
2023-04-01T00:30:45.941Z,8.57
2023-04-01T00:33:13.159Z,9.65
2023-04-01T00:35:40.672Z,9.55
2023-04-01T00:38:07.933Z,8.77
2023-04-01T00:40:36.516Z,9.15
2023-04-01T00:43:04.438Z,10.00
2023-04-01T00:45:33.694Z,9.43
2023-04-01T00:48:03.276Z,9.60
2023-04-01T00:50:31.148Z,9.80
2023-04-01T00:52:58.952Z,8.88
2023-04-01T00:55:28.697Z,8.63
2023-04-01T00:57:57.960Z,8.82
2023-04-01T01:00:25.167Z,8.98
2023-04-01T01:02:52.623Z,9.33
2023-04-01T01:05:21.673Z,9.35
2023-04-01T01:07:53.696Z,8.68
2023-04-01T01:10:31.696Z,9.30
2023-04-01T01:13:05.937Z,8.32
2023-04-01T01:16:08.349Z,9.10
2023-04-01T01:18:43.724Z,7.80
2023-04-01T01:21:12.562Z,7.55
2023-04-01T01:23:42.437Z,7.95
2023-04-01T01:26:35.984Z,7.93
2023-04-01T01:29:23.440Z,7.20
2023-04-01T01:32:09.144Z,6.30
2023-04-01T01:34:51.201Z,6.40
2023-04-01T01:37:19.275Z,5.65
2023-04-01T01:39:48.934Z,5.32
2023-04-01T01:42:18.441Z,4.43
2023-04-01T01:44:47.586Z,4.47
2023-04-01T01:47:15.675Z,4.72
2023-04-01T01:49:43.859Z,4.50
2023-04-01T01:52:11.110Z,4.90
2023-04-01T01:54:38.213Z,4.90
2023-04-01T01:57:09.094Z,4.82
2023-04-01T01:59:38.752Z,4.63
2023-04-01T02:02:08.983Z,4.70
2023-04-01T02:04:37.515Z,4.30
2023-04-01T02:07:06.284Z,4.20
2023-04-01T02:09:35.133Z,3.88
2023-04-01T02:12:13.814Z,4.40
2023-04-01T02:14:41.007Z,5.40
2023-04-01T02:17:10.446Z,4.57
2023-04-01T02:20:00.184Z,3.87
2023-04-01T02:22:38.234Z,4.30
2023-04-01T02:25:10.368Z,4.95
2023-04-01T02:27:37.696Z,4.70
2023-04-01T02:30:05.128Z,5.45
2023-04-01T02:32:33.198Z,4.63
2023-04-01T02:35:04.213Z,5.40
2023-04-01T02:37:32.813Z,5.50
2023-04-01T02:40:02.478Z,5.35
2023-04-01T02:42:29.596Z,5.43
2023-04-01T02:44:56.742Z,5.53
2023-04-01T02:47:23.924Z,5.40
2023-04-01T02:49:51.055Z,5.57
2023-04-01T02:52:18.203Z,5.18
2023-04-01T02:54:45.357Z,5.13
2023-04-01T02:57:12.590Z,4.83
2023-04-01T02:59:39.704Z,4.85
2023-04-01T03:02:07.837Z,4.93
2023-04-01T03:04:34.979Z,4.70
2023-04-01T03:07:02.397Z,4.47
2023-04-01T03:09:29.727Z,4.40
2023-04-01T03:11:56.885Z,4.22
2023-04-01T03:14:24.155Z,4.65
2023-04-01T03:16:51.303Z,4.78
2023-04-01T03:19:18.446Z,5.30
2023-04-01T03:21:45.712Z,5.70
2023-04-01T03:24:12.902Z,5.35
2023-04-01T03:26:40.217Z,5.47
2023-04-01T03:29:07.480Z,5.25
2023-04-01T03:31:35.465Z,5.80
2023-04-01T03:34:02.729Z,4.83
2023-04-01T03:36:29.973Z,5.13
2023-04-01T03:38:57.191Z,4.82
2023-04-01T03:41:24.376Z,5.22
2023-04-01T03:43:51.559Z,5.10
2023-04-01T03:46:19.695Z,4.77
2023-04-01T03:48:46.931Z,4.88
2023-04-01T03:51:14.048Z,4.90
2023-04-01T03:53:41.177Z,5.20
2023-04-01T03:56:08.813Z,5.00
2023-04-01T03:58:36.238Z,4.70
2023-04-01T04:01:03.397Z,5.05
2023-04-01T04:03:30.976Z,5.40
2023-04-01T04:05:58.358Z,5.32
2023-04-01T04:08:25.665Z,5.45
2023-04-01T04:10:56.843Z,5.50
2023-04-01T04:13:24.046Z,5.20
2023-04-01T04:15:51.235Z,5.00
2023-04-01T04:18:18.441Z,4.97
2023-04-01T04:20:48.142Z,5.35
2023-04-01T04:23:15.339Z,5.07
2023-04-01T04:25:42.544Z,5.43
2023-04-01T04:28:09.758Z,5.28
2023-04-01T04:30:36.937Z,5.20
2023-04-01T04:33:04.229Z,4.90
2023-04-01T04:35:31.770Z,4.90
2023-04-01T04:37:59.118Z,4.60
2023-04-01T04:40:26.344Z,5.07
2023-04-01T04:42:53.590Z,5.15
2023-04-01T04:45:20.912Z,4.28
2023-04-01T04:47:48.034Z,3.63
2023-04-01T04:50:15.631Z,3.70
2023-04-01T04:52:42.775Z,3.60
2023-04-01T04:55:10.040Z,3.95
2023-04-01T04:57:37.872Z,3.75
2023-04-01T05:00:05.441Z,3.47
2023-04-01T05:02:32.768Z,3.60
2023-04-01T05:05:00.053Z,3.97
2023-04-01T05:07:27.285Z,3.40
2023-04-01T05:09:54.467Z,4.00
2023-04-01T05:12:21.542Z,4.20
2023-04-01T05:14:48.674Z,4.13
2023-04-01T05:17:15.824Z,4.20
2023-04-01T05:19:42.958Z,4.30
2023-04-01T05:22:10.252Z,4.72
2023-04-01T05:24:37.394Z,4.43
2023-04-01T05:27:04.663Z,4.20
2023-04-01T05:29:31.888Z,4.25
2023-04-01T05:31:59.041Z,4.88
2023-04-01T05:34:26.177Z,4.93
2023-04-01T05:36:53.339Z,4.87
2023-04-01T05:39:20.506Z,4.97
2023-04-01T05:41:47.746Z,5.32
2023-04-01T05:44:14.918Z,5.05
2023-04-01T05:46:42.428Z,5.07
2023-04-01T05:49:09.779Z,5.10
2023-04-01T05:51:37.085Z,5.22
2023-04-01T05:54:05.836Z,5.65
2023-04-01T05:56:32.984Z,5.13
2023-04-01T05:59:00.265Z,7.18
2023-04-01T06:01:27.432Z,6.93
2023-04-01T06:03:55.026Z,5.78
2023-04-01T06:06:25.828Z,5.75
2023-04-01T06:08:54.052Z,6.38
2023-04-01T06:11:21.284Z,5.65
2023-04-01T06:14:11.932Z,5.67
2023-04-01T06:16:39.131Z,5.28
2023-04-01T06:19:25.361Z,5.70
2023-04-01T06:22:01.778Z,5.30
2023-04-01T06:24:35.412Z,5.53
2023-04-01T06:27:05.713Z,5.37
2023-04-01T06:29:41.971Z,5.20
2023-04-01T06:32:18.404Z,6.15
2023-04-01T06:35:11.896Z,5.32
2023-04-01T06:37:51.475Z,5.00
2023-04-01T06:40:18.609Z,5.53
2023-04-01T06:42:46.263Z,5.63
2023-04-01T06:45:19.566Z,5.60
2023-04-01T06:47:52.782Z,4.90
2023-04-01T06:50:28.295Z,5.53
2023-04-01T06:53:15.729Z,5.10
2023-04-01T06:55:42.970Z,4.80
2023-04-01T06:58:18.745Z,4.97
2023-04-01T07:00:47.928Z,4.40
2023-04-01T07:03:22.172Z,5.40
2023-04-01T07:05:49.873Z,4.90
2023-04-01T07:08:19.843Z,4.32
2023-04-01T07:10:50.152Z,4.78
2023-04-01T07:13:23.022Z,4.88
2023-04-01T07:16:05.598Z,4.78
2023-04-01T07:18:44.661Z,5.27
2023-04-01T07:21:15.976Z,5.20
2023-04-01T07:23:46.606Z,5.63
2023-04-01T07:26:31.755Z,5.75
2023-04-01T07:28:59.220Z,5.70
2023-04-01T07:31:42.271Z,7.60
2023-04-01T07:34:12.408Z,5.65
2023-04-01T07:36:42.675Z,5.88
2023-04-01T07:39:12.658Z,5.57
2023-04-01T07:41:39.835Z,4.85
2023-04-01T07:44:22.322Z,5.13
2023-04-01T07:46:52.501Z,5.57
2023-04-01T07:49:27.094Z,5.50
2023-04-01T07:52:00.871Z,5.40
2023-04-01T07:54:36.333Z,5.40
2023-04-01T07:57:13.329Z,5.00
2023-04-01T07:59:40.577Z,4.93
2023-04-01T08:02:17.122Z,4.93
2023-04-01T08:04:44.343Z,5.30
2023-04-01T08:07:19.900Z,4.82
2023-04-01T08:09:47.124Z,4.40
2023-04-01T08:12:33.259Z,4.78
2023-04-01T08:15:22.213Z,5.05
2023-04-01T08:17:52.547Z,4.82
2023-04-01T08:20:19.729Z,5.03
2023-04-01T08:22:56.263Z,4.80
2023-04-01T08:25:27.982Z,5.05
2023-04-01T08:28:15.443Z,4.95
2023-04-01T08:30:49.412Z,5.38
2023-04-01T08:33:16.586Z,5.68
2023-04-01T08:35:48.795Z,5.43
2023-04-01T08:38:19.637Z,4.90
2023-04-01T08:41:01.771Z,5.72
2023-04-01T08:43:32.018Z,5.43
2023-04-01T08:46:19.462Z,6.20
2023-04-01T08:49:03.361Z,5.37
2023-04-01T08:51:53.731Z,5.82
2023-04-01T08:54:30.542Z,5.82
2023-04-01T08:57:17.310Z,6.35
2023-04-01T08:59:56.615Z,5.93
2023-04-01T09:02:23.770Z,5.80
2023-04-01T09:05:09.876Z,6.50
2023-04-01T09:07:43.139Z,6.40
2023-04-01T09:10:27.528Z,6.50
2023-04-01T09:13:13.369Z,6.15
2023-04-01T09:15:52.825Z,6.23
2023-04-01T09:18:39.016Z,6.38
2023-04-01T09:21:15.314Z,6.50
2023-04-01T09:23:47.143Z,6.93
2023-04-01T09:26:32.840Z,6.03
2023-04-01T09:29:19.778Z,6.20
2023-04-01T09:31:52.787Z,6.03
2023-04-01T09:34:32.772Z,6.38
2023-04-01T09:36:59.943Z,6.05
2023-04-01T09:39:38.139Z,5.70
2023-04-01T09:42:14.607Z,5.80
2023-04-01T09:45:01.355Z,6.10
2023-04-01T09:47:46.865Z,6.32
2023-04-01T09:50:19.281Z,6.45
2023-04-01T09:53:05.524Z,5.00
2023-04-01T09:55:51.425Z,5.30
2023-04-01T09:58:43.882Z,4.90
2023-04-01T10:01:26.455Z,4.45
2023-04-01T10:03:56.631Z,5.07
2023-04-01T10:06:27.105Z,4.32
2023-04-01T10:09:07.332Z,4.23
2023-04-01T10:11:37.595Z,4.90
2023-04-01T10:14:23.330Z,4.68
2023-04-01T10:16:59.533Z,4.93
2023-04-01T10:19:39.385Z,5.25
2023-04-01T10:22:09.555Z,4.50
2023-04-01T10:24:55.500Z,4.90
2023-04-01T10:27:41.427Z,4.35
2023-04-01T10:30:25.120Z,4.05
2023-04-01T10:33:24.672Z,3.55
2023-04-01T10:36:10.082Z,3.53
2023-04-01T10:38:55.833Z,3.20
2023-04-01T10:41:29.644Z,2.80
2023-04-01T10:43:56.802Z,2.42
2023-04-01T10:46:46.084Z,2.60
2023-04-01T10:49:28.599Z,3.10
2023-04-01T10:52:14.510Z,3.90
2023-04-01T10:54:42.626Z,3.60
2023-04-01T10:57:16.016Z,2.92
2023-04-01T10:59:58.431Z,2.85
2023-04-01T11:02:34.683Z,2.93
2023-04-01T11:05:21.109Z,2.58
2023-04-01T11:08:07.534Z,2.92
2023-04-01T11:10:53.438Z,3.10
2023-04-01T11:13:39.364Z,3.58
2023-04-01T11:16:19.768Z,3.80
2023-04-01T11:19:05.934Z,3.03
2023-04-01T11:21:42.488Z,3.35
2023-04-01T11:24:15.673Z,3.25
2023-04-01T11:26:53.554Z,3.40
2023-04-01T11:29:26.903Z,3.03
2023-04-01T11:32:00.397Z,3.20
2023-04-01T11:34:43.601Z,3.00
2023-04-01T11:37:20.075Z,3.03
2023-04-01T11:40:08.604Z,3.50
2023-04-01T11:43:08.422Z,3.40
2023-04-01T11:45:41.578Z,2.88
2023-04-01T11:48:24.730Z,3.20
2023-04-01T11:51:07.400Z,2.90
2023-04-01T11:53:34.731Z,2.45
2023-04-01T11:56:11.185Z,2.13
2023-04-01T11:58:44.659Z,2.40
2023-04-01T12:01:22.107Z,2.40
2023-04-01T12:04:15.611Z,2.70
2023-04-01T12:06:45.590Z,2.55
2023-04-01T12:09:27.698Z,2.80
2023-04-01T12:12:17.825Z,2.10
2023-04-01T12:15:04.184Z,2.20
2023-04-01T12:17:46.839Z,2.45
2023-04-01T12:20:14.111Z,2.70
2023-04-01T12:23:00.012Z,2.77
2023-04-01T12:25:49.202Z,2.60
2023-04-01T12:28:19.464Z,3.00
2023-04-01T12:30:46.642Z,3.40
2023-04-01T12:33:20.180Z,3.60
2023-04-01T12:35:53.675Z,2.77
2023-04-01T12:38:29.025Z,3.50
2023-04-01T12:41:16.140Z,4.10
2023-04-01T12:43:43.430Z,3.50
2023-04-01T12:46:20.047Z,3.83
2023-04-01T12:49:07.791Z,3.50
2023-04-01T12:51:43.594Z,3.70
2023-04-01T12:54:25.429Z,4.60
2023-04-01T12:57:11.533Z,3.90
2023-04-01T13:00:07.861Z,3.42
2023-04-01T13:02:47.809Z,3.53
2023-04-01T13:05:15.012Z,4.18
2023-04-01T13:07:42.092Z,4.03
2023-04-01T13:10:09.161Z,4.70
2023-04-01T13:12:39.536Z,5.00
2023-04-01T13:15:06.782Z,4.20
2023-04-01T13:17:38.801Z,4.70
2023-04-01T13:20:12.078Z,4.65
2023-04-01T13:22:51.961Z,5.78
2023-04-01T13:25:31.387Z,6.43
2023-04-01T13:28:05.316Z,5.90
2023-04-01T13:30:36.146Z,5.47
2023-04-01T13:33:22.266Z,12.32
2023-04-01T13:35:58.592Z,10.18
2023-04-01T13:38:28.811Z,14.05
2023-04-01T13:41:14.785Z,5.47
2023-04-01T13:43:45.466Z,4.20
2023-04-01T13:46:25.051Z,3.83
2023-04-01T13:49:07.495Z,3.50
2023-04-01T13:51:53.536Z,2.88
2023-04-01T13:54:27.539Z,2.70
2023-04-01T13:57:13.500Z,2.83
2023-04-01T13:59:40.744Z,3.72
2023-04-01T14:02:13.930Z,8.65
2023-04-01T14:04:49.620Z,3.25
2023-04-01T14:07:26.236Z,3.27
2023-04-01T14:09:56.478Z,2.60
2023-04-01T14:12:23.636Z,4.63
2023-04-01T14:14:56.781Z,2.58
2023-04-01T14:17:45.585Z,3.05
2023-04-01T14:20:23.705Z,3.37
2023-04-01T14:23:03.049Z,2.63
2023-04-01T14:25:48.777Z,2.63
2023-04-01T14:28:34.713Z,2.90
2023-04-01T14:31:17.187Z,3.00
2023-04-01T14:33:44.363Z,2.67
2023-04-01T14:36:19.862Z,5.43
2023-04-01T14:39:02.963Z,2.90
2023-04-01T14:41:40.957Z,2.72
2023-04-01T14:44:23.333Z,3.50
2023-04-01T14:46:56.605Z,3.77
2023-04-01T14:49:26.217Z,3.33
2023-04-01T14:51:54.236Z,3.53
2023-04-01T14:54:37.167Z,3.92
2023-04-01T14:57:13.311Z,3.80
2023-04-01T15:00:09.959Z,3.80
2023-04-01T15:02:43.349Z,3.50
2023-04-01T15:05:29.636Z,4.20
2023-04-01T15:08:04.865Z,4.05
2023-04-01T15:10:51.070Z,4.00
2023-04-01T15:13:41.573Z,4.00
2023-04-01T15:16:27.641Z,3.72
2023-04-01T15:19:13.632Z,3.88
2023-04-01T15:21:43.837Z,3.65
2023-04-01T15:24:22.131Z,3.28
2023-04-01T15:26:59.109Z,3.60
2023-04-01T15:29:32.496Z,3.40
2023-04-01T15:32:05.812Z,2.97
2023-04-01T15:34:51.500Z,3.00
2023-04-01T15:37:22.931Z,2.92
2023-04-01T15:39:53.192Z,3.33
2023-04-01T15:42:39.175Z,3.10
2023-04-01T15:45:15.457Z,2.90
2023-04-01T15:48:16.280Z,3.10
2023-04-01T15:50:48.482Z,3.03
2023-04-01T15:53:39.029Z,2.50
2023-04-01T15:56:12.137Z,2.42
2023-04-01T15:58:57.925Z,2.95
2023-04-01T16:01:43.987Z,3.00
2023-04-01T16:04:14.298Z,3.33
2023-04-01T16:06:47.634Z,2.80
2023-04-01T16:09:33.521Z,2.88
2023-04-01T16:12:22.818Z,7.10
2023-04-01T16:14:56.134Z,5.22
2023-04-01T16:17:34.760Z,6.45
2023-04-01T16:20:08.070Z,8.10
2023-04-01T16:22:42.172Z,6.50
2023-04-01T16:25:09.236Z,5.90
2023-04-01T16:27:44.210Z,4.75
2023-04-01T16:30:30.367Z,3.08
2023-04-01T16:33:16.071Z,2.87
2023-04-01T16:35:43.214Z,2.95
2023-04-01T16:38:22.710Z,3.40
2023-04-01T16:41:01.153Z,5.47
2023-04-01T16:43:37.664Z,5.25
2023-04-01T16:46:07.829Z,4.47
2023-04-01T16:48:47.491Z,4.65
2023-04-01T16:51:16.868Z,3.28
2023-04-01T16:53:49.671Z,6.72
2023-04-01T16:56:27.274Z,2.80
2023-04-01T16:59:13.313Z,1.73
2023-04-01T17:01:51.958Z,2.03
2023-04-01T17:04:23.473Z,3.28
2023-04-01T17:06:54.752Z,2.40
2023-04-01T17:09:27.175Z,3.55
2023-04-01T17:12:03.350Z,4.07
2023-04-01T17:14:32.812Z,6.15
2023-04-01T17:17:17.656Z,4.43
2023-04-01T17:19:51.265Z,3.10
2023-04-01T17:22:23.797Z,3.10
2023-04-01T17:25:14.335Z,3.67
2023-04-01T17:27:41.423Z,4.20
2023-04-01T17:30:29.945Z,6.15
2023-04-01T17:33:03.615Z,6.65
2023-04-01T17:35:34.585Z,7.47
2023-04-01T17:38:13.932Z,8.40
2023-04-01T17:41:01.423Z,4.85
2023-04-01T17:43:42.779Z,11.38
2023-04-01T17:46:12.791Z,12.15
2023-04-01T17:48:42.946Z,9.00
2023-04-01T17:51:24.736Z,5.53
2023-04-01T17:53:54.836Z,13.85
2023-04-01T17:56:40.844Z,13.15
2023-04-01T17:59:14.008Z,3.90
2023-04-01T18:01:44.548Z,4.47
2023-04-01T18:04:30.661Z,9.40
2023-04-01T18:07:16.800Z,5.78
2023-04-01T18:09:43.966Z,3.78
2023-04-01T18:12:16.651Z,3.50
2023-04-01T18:15:02.997Z,3.88
2023-04-01T18:17:44.240Z,4.00
2023-04-01T18:20:21.900Z,4.80
2023-04-01T18:22:55.450Z,3.80
2023-04-01T18:25:43.483Z,3.47
2023-04-01T18:28:19.915Z,3.40
2023-04-01T18:30:58.444Z,3.30
2023-04-01T18:33:40.544Z,3.22
2023-04-01T18:36:07.659Z,4.15
2023-04-01T18:38:38.953Z,3.70
2023-04-01T18:41:09.193Z,3.78
2023-04-01T18:43:57.301Z,4.10
2023-04-01T18:46:37.013Z,3.92
2023-04-01T18:49:07.548Z,5.10
2023-04-01T18:51:41.020Z,7.32
2023-04-01T18:54:23.196Z,7.53
2023-04-01T18:56:50.578Z,5.97
2023-04-01T18:59:21.003Z,4.88
2023-04-01T19:01:51.162Z,6.00
2023-04-01T19:04:28.562Z,4.93
2023-04-01T19:06:58.356Z,4.78
2023-04-01T19:09:28.345Z,4.63
2023-04-01T19:11:58.593Z,4.55
2023-04-01T19:14:39.508Z,4.40
2023-04-01T19:17:25.465Z,4.38
2023-04-01T19:20:01.406Z,4.38
2023-04-01T19:22:47.533Z,4.40
2023-04-01T19:25:14.688Z,4.22
2023-04-01T19:27:51.826Z,4.03
2023-04-01T19:30:18.910Z,5.72
2023-04-01T19:33:11.742Z,7.93
2023-04-01T19:35:38.941Z,10.10
2023-04-01T19:38:06.515Z,21.50
2023-04-01T19:40:45.776Z,24.80
2023-04-01T19:43:20.228Z,14.32
2023-04-01T19:45:57.330Z,7.78
2023-04-01T19:48:43.347Z,11.93
2023-04-01T19:51:27.178Z,18.17
2023-04-01T19:54:00.357Z,12.68
2023-04-01T19:56:33.119Z,7.10
2023-04-01T19:59:04.684Z,7.32
2023-04-01T20:01:45.199Z,5.90
2023-04-01T20:04:14.961Z,5.78
2023-04-01T20:06:45.493Z,10.30
2023-04-01T20:09:24.212Z,11.75
2023-04-01T20:12:03.497Z,15.88
2023-04-01T20:14:33.638Z,6.67
2023-04-01T20:17:03.963Z,7.80
2023-04-01T20:19:40.815Z,9.23
2023-04-01T20:22:31.418Z,6.82
2023-04-01T20:25:01.848Z,7.72
2023-04-01T20:27:33.367Z,13.83
2023-04-01T20:30:07.175Z,12.90
2023-04-01T20:32:43.680Z,6.82
2023-04-01T20:35:22.277Z,6.13
2023-04-01T20:37:57.439Z,5.70
2023-04-01T20:40:47.518Z,6.00
2023-04-01T20:43:33.189Z,6.82
2023-04-01T20:46:00.488Z,6.10
2023-04-01T20:48:37.053Z,5.88
2023-04-01T20:51:08.658Z,5.95
2023-04-01T20:53:38.089Z,6.37
2023-04-01T20:56:11.353Z,5.50
2023-04-01T20:58:53.421Z,6.07
2023-04-01T21:01:29.811Z,5.80
2023-04-01T21:04:08.675Z,5.93
2023-04-01T21:06:39.842Z,5.70
2023-04-01T21:09:25.164Z,5.63
2023-04-01T21:11:52.574Z,5.03
2023-04-01T21:14:28.870Z,5.13
2023-04-01T21:17:02.746Z,5.30
2023-04-01T21:19:29.804Z,5.47
2023-04-01T21:22:08.486Z,5.15
2023-04-01T21:24:44.790Z,5.47
2023-04-01T21:27:27.082Z,4.50
2023-04-01T21:29:57.273Z,4.85
2023-04-01T21:32:42.852Z,4.70
2023-04-01T21:35:22.319Z,4.50
2023-04-01T21:37:58.547Z,4.35
2023-04-01T21:40:34.590Z,4.43
2023-04-01T21:43:19.755Z,4.55
2023-04-01T21:46:05.656Z,4.77
2023-04-01T21:48:40.040Z,4.90
2023-04-01T21:51:07.177Z,4.68
2023-04-01T21:53:53.151Z,4.63
2023-04-01T21:56:39.022Z,4.53
2023-04-01T21:59:24.459Z,4.83
2023-04-01T22:01:54.475Z,5.22
2023-04-01T22:04:40.540Z,5.05
2023-04-01T22:07:22.813Z,5.13
2023-04-01T22:09:52.905Z,5.22
2023-04-01T22:12:32.350Z,5.00
2023-04-01T22:15:02.408Z,5.00
2023-04-01T22:17:37.798Z,4.35
2023-04-01T22:20:20.502Z,4.80
2023-04-01T22:22:53.838Z,5.10
2023-04-01T22:25:27.283Z,4.93
2023-04-01T22:27:57.002Z,4.88
2023-04-01T22:30:30.334Z,4.90
2023-04-01T22:33:21.123Z,5.28
2023-04-01T22:35:51.400Z,5.28
2023-04-01T22:38:31.304Z,4.97
2023-04-01T22:41:07.406Z,4.78
2023-04-01T22:43:42.182Z,4.88
2023-04-01T22:46:22.556Z,4.70
2023-04-01T22:49:10.544Z,4.95
2023-04-01T22:51:46.903Z,4.93
2023-04-01T22:54:36.156Z,5.20
2023-04-01T22:57:10.347Z,4.90
2023-04-01T22:59:42.410Z,4.88
2023-04-01T23:02:32.854Z,5.68
2023-04-01T23:05:02.259Z,5.40
2023-04-01T23:07:29.955Z,5.20
2023-04-01T23:09:58.478Z,6.00
2023-04-01T23:12:26.132Z,5.68
2023-04-01T23:14:55.671Z,6.00
2023-04-01T23:17:26.026Z,6.17
2023-04-01T23:19:53.220Z,5.75
2023-04-01T23:22:30.655Z,6.85
2023-04-01T23:25:03.372Z,6.57
2023-04-01T23:27:40.529Z,7.10
2023-04-01T23:30:27.947Z,6.23
2023-04-01T23:32:55.394Z,6.82
2023-04-01T23:35:22.579Z,7.18
2023-04-01T23:37:49.729Z,7.18
2023-04-01T23:40:16.871Z,6.93
2023-04-01T23:42:44.009Z,7.30
2023-04-01T23:45:18.184Z,6.60
2023-04-01T23:47:47.673Z,6.97
2023-04-01T23:50:22.896Z,6.63
2023-04-01T23:52:51.557Z,6.80
2023-04-01T23:55:21.059Z,7.03
2023-04-01T23:58:03.589Z,7.07
